createdAt,value
2022-11-20T00:01:39.106Z,50.08
2022-11-20T00:04:06.124Z,51.80
2022-11-20T00:06:33.079Z,56.08
2022-11-20T00:09:13.783Z,50.92
2022-11-20T00:11:40.806Z,54.80
2022-11-20T00:14:10.521Z,54.50
2022-11-20T00:16:41.545Z,56.85
2022-11-20T00:19:15.275Z,51.67
2022-11-20T00:21:42.286Z,54.55
2022-11-20T00:24:10.362Z,58.05
2022-11-20T00:26:37.602Z,60.85
2022-11-20T00:29:04.601Z,62.75
2022-11-20T00:31:31.678Z,52.70
2022-11-20T00:33:58.698Z,57.97
2022-11-20T00:36:26.801Z,57.00
2022-11-20T00:38:54.769Z,54.55
2022-11-20T00:41:22.159Z,50.03
2022-11-20T00:43:49.227Z,50.97
2022-11-20T00:46:18.016Z,52.85
2022-11-20T00:48:45.025Z,52.47
2022-11-20T00:51:13.104Z,53.50
2022-11-20T00:53:40.053Z,52.95
2022-11-20T00:56:08.467Z,49.40
2022-11-20T00:58:37.062Z,56.33
2022-11-20T01:01:12.145Z,59.33
2022-11-20T01:03:43.713Z,53.20
2022-11-20T01:06:21.665Z,58.30
2022-11-20T01:08:49.040Z,60.70
2022-11-20T01:11:21.095Z,53.55
2022-11-20T01:13:50.593Z,61.08
2022-11-20T01:16:22.251Z,57.08
2022-11-20T01:18:51.082Z,56.08
2022-11-20T01:21:19.288Z,56.47
2022-11-20T01:23:46.606Z,60.85
2022-11-20T01:26:15.272Z,66.15
2022-11-20T01:28:42.876Z,55.65
2022-11-20T01:31:14.049Z,60.72
2022-11-20T01:33:41.439Z,63.42
2022-11-20T01:36:08.849Z,57.95
2022-11-20T01:38:35.946Z,68.90
2022-11-20T01:41:02.846Z,63.88
2022-11-20T01:43:29.876Z,63.47
2022-11-20T01:45:59.901Z,71.38
2022-11-20T01:48:31.466Z,68.10
2022-11-20T01:50:58.440Z,68.00
2022-11-20T01:53:27.871Z,79.35
2022-11-20T01:55:56.068Z,74.40
2022-11-20T01:58:26.904Z,72.95
2022-11-20T02:00:53.866Z,70.00
2022-11-20T02:03:21.065Z,69.95
2022-11-20T02:06:11.099Z,74.60
2022-11-20T02:08:38.684Z,71.32
2022-11-20T02:11:05.833Z,68.15
2022-11-20T02:13:45.441Z,70.95
2022-11-20T02:16:31.446Z,77.65
2022-11-20T02:18:59.920Z,75.28
2022-11-20T02:21:32.761Z,70.00
2022-11-20T02:24:05.487Z,73.47
2022-11-20T02:26:43.819Z,74.18
2022-11-20T02:29:15.594Z,83.15
2022-11-20T02:31:43.452Z,77.07
2022-11-20T02:34:10.483Z,79.43
2022-11-20T02:36:37.779Z,85.57
2022-11-20T02:39:05.868Z,82.65
2022-11-20T02:41:34.420Z,88.30
2022-11-20T02:44:01.725Z,94.05
2022-11-20T02:46:28.840Z,90.10
2022-11-20T02:48:55.973Z,77.05
2022-11-20T02:51:22.916Z,85.82
2022-11-20T02:53:49.938Z,83.85
2022-11-20T02:56:16.906Z,81.72
2022-11-20T02:58:43.857Z,90.07
2022-11-20T03:01:10.822Z,78.68
2022-11-20T03:03:37.871Z,79.18
2022-11-20T03:06:34.166Z,83.25
2022-11-20T03:09:01.989Z,68.43
2022-11-20T03:11:29.273Z,69.40
2022-11-20T03:13:56.224Z,68.35
2022-11-20T03:16:23.533Z,72.03
2022-11-20T03:18:50.781Z,71.22
2022-11-20T03:21:17.818Z,69.10
2022-11-20T03:23:44.880Z,65.57
2022-11-20T03:26:16.785Z,73.00
2022-11-20T03:28:47.796Z,69.57
2022-11-20T03:31:15.618Z,69.47
2022-11-20T03:33:42.842Z,63.20
2022-11-20T03:36:11.778Z,78.40
2022-11-20T03:38:38.950Z,80.90
2022-11-20T03:41:07.916Z,66.68
2022-11-20T03:43:35.070Z,69.90
2022-11-20T03:46:02.361Z,79.82
2022-11-20T03:48:29.443Z,78.78
2022-11-20T03:51:12.664Z,81.35
2022-11-20T03:53:40.629Z,76.03
2022-11-20T03:56:08.441Z,72.88
2022-11-20T03:58:38.099Z,73.78
2022-11-20T04:01:15.941Z,66.47
2022-11-20T04:03:43.264Z,71.10
2022-11-20T04:06:11.953Z,74.07
2022-11-20T04:08:39.078Z,80.50
2022-11-20T04:11:15.813Z,75.97
2022-11-20T04:13:43.153Z,80.97
2022-11-20T04:16:10.562Z,79.72
2022-11-20T04:18:37.489Z,80.55
2022-11-20T04:21:05.249Z,74.70
2022-11-20T04:23:32.239Z,77.82
2022-11-20T04:26:10.113Z,75.90
2022-11-20T04:28:37.353Z,69.75
2022-11-20T04:31:05.813Z,81.88
2022-11-20T04:33:34.387Z,85.18
2022-11-20T04:36:09.165Z,85.85
2022-11-20T04:38:36.205Z,82.65
2022-11-20T04:41:05.078Z,77.72
2022-11-20T04:43:32.478Z,82.07
2022-11-20T04:45:59.740Z,86.72
2022-11-20T04:48:27.207Z,90.68
2022-11-20T04:50:54.319Z,85.10
2022-11-20T04:53:21.277Z,92.07
2022-11-20T04:55:48.321Z,76.93
2022-11-20T04:58:15.273Z,84.88
2022-11-20T05:00:42.275Z,83.85
2022-11-20T05:03:10.276Z,76.28
2022-11-20T05:05:37.258Z,89.18
2022-11-20T05:08:04.698Z,86.82
2022-11-20T05:10:31.706Z,86.10
2022-11-20T05:12:58.628Z,84.60
2022-11-20T05:15:25.855Z,96.35
2022-11-20T05:17:53.115Z,88.15
2022-11-20T05:20:20.344Z,92.15
2022-11-20T05:22:47.265Z,104.25
2022-11-20T05:25:14.239Z,87.68
2022-11-20T05:27:41.119Z,91.72
2022-11-20T05:30:08.859Z,95.80
2022-11-20T05:32:35.821Z,85.18
2022-11-20T05:35:02.803Z,81.20
2022-11-20T05:37:29.793Z,84.40
2022-11-20T05:39:56.771Z,85.70
2022-11-20T05:42:40.872Z,85.25
2022-11-20T05:45:11.232Z,85.65
2022-11-20T05:47:38.218Z,76.32
2022-11-20T05:50:05.517Z,75.70
2022-11-20T05:52:32.498Z,81.38
2022-11-20T05:55:03.036Z,76.63
2022-11-20T05:57:29.993Z,75.00
2022-11-20T05:59:57.088Z,88.63
2022-11-20T06:02:24.160Z,81.22
2022-11-20T06:04:51.185Z,73.53
2022-11-20T06:07:18.570Z,78.40
2022-11-20T06:09:47.863Z,69.57
2022-11-20T06:12:14.854Z,79.90
2022-11-20T06:14:41.950Z,76.88
2022-11-20T06:17:09.064Z,77.68
2022-11-20T06:19:36.013Z,80.40
2022-11-20T06:22:03.015Z,82.97
2022-11-20T06:24:29.981Z,73.57
2022-11-20T06:26:56.922Z,87.45
2022-11-20T06:29:24.110Z,87.47
2022-11-20T06:31:51.382Z,87.22
2022-11-20T06:34:18.349Z,95.50
2022-11-20T06:36:45.300Z,85.63
2022-11-20T06:39:12.304Z,95.00
2022-11-20T06:41:39.262Z,82.15
2022-11-20T06:44:06.654Z,91.45
2022-11-20T06:46:33.663Z,90.97
2022-11-20T06:49:00.588Z,94.72
2022-11-20T06:51:27.690Z,82.25
2022-11-20T06:53:54.697Z,76.50
2022-11-20T06:56:21.599Z,77.28
2022-11-20T06:58:48.710Z,85.63
2022-11-20T07:01:16.063Z,82.72
2022-11-20T07:03:43.098Z,84.22
2022-11-20T07:06:10.043Z,78.65
2022-11-20T07:08:37.086Z,84.28
2022-11-20T07:11:06.440Z,79.45
2022-11-20T07:13:33.486Z,77.93
2022-11-20T07:16:01.930Z,81.80
2022-11-20T07:18:29.086Z,80.88
2022-11-20T07:20:56.365Z,76.50
2022-11-20T07:23:23.354Z,75.50
2022-11-20T07:25:50.326Z,74.80
2022-11-20T07:28:17.410Z,74.82
2022-11-20T07:30:44.406Z,77.65
2022-11-20T07:33:11.312Z,71.93
2022-11-20T07:35:38.367Z,75.68
2022-11-20T07:38:05.426Z,82.70
2022-11-20T07:40:32.445Z,77.53
2022-11-20T07:42:59.427Z,78.50
2022-11-20T07:45:26.625Z,76.07
2022-11-20T07:47:56.450Z,82.75
2022-11-20T07:50:23.418Z,85.43
2022-11-20T07:52:50.433Z,78.88
2022-11-20T07:55:17.919Z,88.45
2022-11-20T07:57:44.912Z,93.10
2022-11-20T08:00:12.717Z,94.93
2022-11-20T08:02:43.088Z,100.25
2022-11-20T08:05:10.322Z,111.32
2022-11-20T08:07:41.572Z,107.22
2022-11-20T08:10:09.637Z,110.40
2022-11-20T08:12:55.069Z,115.38
2022-11-20T08:15:22.138Z,108.82
2022-11-20T08:18:15.352Z,104.78
2022-11-20T08:20:36.286Z,107.40
2022-11-20T08:23:04.424Z,100.63
2022-11-20T08:25:31.474Z,98.93
2022-11-20T08:28:00.413Z,106.63
2022-11-20T08:30:28.473Z,86.53
2022-11-20T08:32:55.625Z,81.13
2022-11-20T08:35:23.021Z,79.50
2022-11-20T08:37:50.082Z,73.90
2022-11-20T08:40:19.684Z,56.08
2022-11-20T08:42:50.703Z,48.83
2022-11-20T08:45:18.331Z,52.58
2022-11-20T08:47:45.563Z,45.40
2022-11-20T08:50:13.282Z,50.05
2022-11-20T08:52:40.432Z,51.50
2022-11-20T08:55:09.822Z,39.88
2022-11-20T08:57:37.222Z,45.70
2022-11-20T09:00:08.416Z,45.20
2022-11-20T09:02:36.287Z,41.95
2022-11-20T09:05:03.553Z,54.30
2022-11-20T09:07:31.224Z,56.58
2022-11-20T09:10:16.831Z,56.25
2022-11-20T09:12:45.320Z,52.55
2022-11-20T09:15:12.779Z,57.15
2022-11-20T09:17:39.721Z,54.53
2022-11-20T09:20:07.042Z,52.70
2022-11-20T09:22:34.239Z,55.92
2022-11-20T09:25:01.180Z,58.78
2022-11-20T09:27:28.144Z,55.33
2022-11-20T09:29:55.089Z,57.97
2022-11-20T09:32:22.073Z,54.45
2022-11-20T09:34:49.061Z,58.80
2022-11-20T09:37:16.121Z,53.85
2022-11-20T09:39:43.107Z,50.67
2022-11-20T09:42:33.435Z,43.70
2022-11-20T09:45:06.730Z,50.47
2022-11-20T09:47:49.227Z,47.88
2022-11-20T09:50:41.639Z,53.22
2022-11-20T09:53:14.461Z,66.60
2022-11-20T09:55:41.479Z,64.63
2022-11-20T09:58:13.093Z,65.85
2022-11-20T10:00:40.124Z,60.90
2022-11-20T10:03:22.554Z,64.78
2022-11-20T10:05:52.254Z,69.13
2022-11-20T10:08:31.636Z,64.50
2022-11-20T10:11:27.756Z,63.08
2022-11-20T10:14:30.483Z,61.50
2022-11-20T10:17:03.235Z,63.50
2022-11-20T10:19:43.945Z,61.90
2022-11-20T10:23:02.278Z,55.13
2022-11-20T10:25:44.575Z,55.60
2022-11-20T10:28:41.609Z,44.70
2022-11-20T10:31:15.456Z,43.10
2022-11-20T10:34:10.364Z,51.80
2022-11-20T10:36:35.030Z,45.50
2022-11-20T10:39:15.858Z,46.70
2022-11-20T10:41:42.950Z,50.25
2022-11-20T10:44:36.758Z,49.15
2022-11-20T10:47:05.818Z,53.00
2022-11-20T10:49:34.140Z,50.42
2022-11-20T10:52:20.210Z,51.17
2022-11-20T10:55:15.599Z,48.97
2022-11-20T10:58:16.690Z,52.28
2022-11-20T11:00:43.796Z,54.55
2022-11-20T11:03:23.946Z,49.47
2022-11-20T11:06:33.101Z,42.30
2022-11-20T11:09:02.370Z,44.05
2022-11-20T11:11:31.268Z,50.30
2022-11-20T11:14:11.570Z,44.75
2022-11-20T11:16:53.326Z,49.58
2022-11-20T11:19:20.721Z,44.60
2022-11-20T11:21:55.978Z,44.53
2022-11-20T11:24:41.514Z,46.47
2022-11-20T11:27:17.286Z,51.50
2022-11-20T11:29:45.237Z,37.72
2022-11-20T11:32:15.286Z,42.65
2022-11-20T11:34:42.374Z,39.45
2022-11-20T11:37:18.574Z,40.67
2022-11-20T11:39:45.605Z,37.47
2022-11-20T11:42:18.523Z,38.95
2022-11-20T11:45:04.831Z,38.15
2022-11-20T11:47:32.699Z,33.95
2022-11-20T11:50:18.184Z,39.13
2022-11-20T11:53:03.501Z,41.90
2022-11-20T11:55:48.070Z,37.05
2022-11-20T12:00:58.116Z,33.67
2022-11-20T12:03:43.754Z,38.15
2022-11-20T12:06:17.512Z,39.88
2022-11-20T12:08:57.339Z,36.10
2022-11-20T12:11:54.075Z,37.13
2022-11-20T12:14:40.346Z,39.85
2022-11-20T12:17:12.030Z,40.20
2022-11-20T12:19:39.030Z,34.50
2022-11-20T12:22:31.208Z,33.33
2022-11-20T12:25:15.860Z,28.65
2022-11-20T12:30:20.420Z,29.83
2022-11-20T12:33:18.566Z,31.17
2022-11-20T12:36:00.725Z,28.60
2022-11-20T12:38:30.723Z,32.22
2022-11-20T12:41:53.654Z,29.58
2022-11-20T12:44:54.519Z,29.80
2022-11-20T12:48:11.804Z,31.67
2022-11-20T12:51:17.687Z,34.95
2022-11-20T12:53:49.965Z,30.05
2022-11-20T12:56:45.560Z,29.40
2022-11-20T12:59:27.046Z,31.27
2022-11-20T13:02:11.910Z,30.17
2022-11-20T13:04:59.998Z,29.23
2022-11-20T13:07:27.143Z,28.02
2022-11-20T13:09:54.249Z,30.42
2022-11-20T13:12:26.299Z,26.80
2022-11-20T13:15:12.892Z,24.25
2022-11-20T13:17:59.302Z,26.77
2022-11-20T13:20:26.302Z,24.80
2022-11-20T13:22:55.713Z,27.90
2022-11-20T13:25:51.461Z,26.85
2022-11-20T13:28:18.791Z,30.67
2022-11-20T13:30:55.508Z,23.63
2022-11-20T13:33:32.453Z,26.83
2022-11-20T13:36:03.193Z,26.88
2022-11-20T13:38:45.105Z,27.33
2022-11-20T13:41:30.102Z,26.13
2022-11-20T13:44:09.197Z,25.65
2022-11-20T13:46:46.850Z,24.98
2022-11-20T13:49:27.103Z,24.33
2022-11-20T13:52:41.909Z,26.50
2022-11-20T13:55:31.679Z,23.43
2022-11-20T13:58:07.239Z,22.05
2022-11-20T14:00:34.375Z,22.45
2022-11-20T14:03:07.396Z,21.80
2022-11-20T14:05:39.651Z,20.42
2022-11-20T14:08:07.726Z,23.08
2022-11-20T14:10:34.880Z,23.23
2022-11-20T14:13:16.789Z,25.08
2022-11-20T14:15:45.211Z,27.90
2022-11-20T14:18:20.168Z,24.08
2022-11-20T14:20:48.551Z,23.55
2022-11-20T14:23:29.504Z,24.50
2022-11-20T14:25:58.038Z,23.80
2022-11-20T14:28:27.600Z,22.85
2022-11-20T14:30:54.923Z,28.00
2022-11-20T14:33:25.819Z,24.55
2022-11-20T14:35:54.498Z,23.67
2022-11-20T14:38:25.075Z,25.35
2022-11-20T14:40:52.031Z,26.55
2022-11-20T14:43:26.700Z,24.05
2022-11-20T14:46:03.745Z,29.00
2022-11-20T14:48:39.462Z,31.58
2022-11-20T14:51:06.559Z,38.35
2022-11-20T14:53:33.517Z,33.85
2022-11-20T14:56:01.852Z,40.28
2022-11-20T14:58:30.595Z,34.20
2022-11-20T15:01:03.134Z,37.63
2022-11-20T15:03:37.987Z,35.42
2022-11-20T15:06:06.380Z,34.60
2022-11-20T15:08:33.559Z,38.67
2022-11-20T15:11:00.526Z,38.03
2022-11-20T15:13:33.130Z,38.90
2022-11-20T15:16:01.547Z,39.40
2022-11-20T15:18:40.076Z,42.13
2022-11-20T15:21:17.533Z,42.28
2022-11-20T15:23:44.718Z,41.08
2022-11-20T15:26:18.447Z,38.50
2022-11-20T15:28:48.743Z,33.97
2022-11-20T15:31:17.738Z,36.20
2022-11-20T15:33:44.887Z,36.92
2022-11-20T15:36:11.977Z,34.88
2022-11-20T15:38:39.182Z,32.72
2022-11-20T15:41:06.287Z,32.67
2022-11-20T15:43:33.294Z,37.33
2022-11-20T15:46:23.569Z,39.60
2022-11-20T15:48:57.648Z,33.47
2022-11-20T15:51:29.251Z,32.20
2022-11-20T15:53:56.523Z,35.58
2022-11-20T15:56:23.569Z,40.63
2022-11-20T15:58:50.576Z,33.75
2022-11-20T16:01:19.419Z,37.05
2022-11-20T16:03:46.562Z,36.67
2022-11-20T16:06:13.626Z,41.88
2022-11-20T16:08:40.751Z,39.58
2022-11-20T16:11:13.124Z,45.50
2022-11-20T16:14:00.782Z,43.15
2022-11-20T16:16:37.524Z,43.17
2022-11-20T16:19:06.252Z,47.35
2022-11-20T16:21:33.281Z,49.70
2022-11-20T16:24:01.259Z,48.95
2022-11-20T16:26:28.309Z,50.08
2022-11-20T16:28:55.754Z,47.78
2022-11-20T16:31:22.846Z,55.38
2022-11-20T16:33:50.907Z,57.05
2022-11-20T16:36:18.179Z,53.63
2022-11-20T16:38:45.253Z,51.83
2022-11-20T16:41:15.045Z,47.33
2022-11-20T16:43:47.969Z,42.60
2022-11-20T16:46:18.285Z,49.20
2022-11-20T16:48:45.664Z,49.30
2022-11-20T16:51:14.490Z,46.10
2022-11-20T16:53:42.874Z,48.22
2022-11-20T16:56:14.016Z,51.40
2022-11-20T16:58:40.948Z,53.45
2022-11-20T17:01:10.710Z,50.55
2022-11-20T17:03:39.580Z,54.10
2022-11-20T17:06:19.212Z,52.10
2022-11-20T17:08:49.471Z,49.08
2022-11-20T17:11:18.352Z,54.13
2022-11-20T17:13:45.485Z,54.28
2022-11-20T17:16:22.856Z,49.25
2022-11-20T17:18:52.600Z,51.47
2022-11-20T17:21:19.786Z,47.63
2022-11-20T17:23:47.109Z,52.67
2022-11-20T17:26:17.667Z,52.80
2022-11-20T17:29:01.180Z,44.13
2022-11-20T17:31:28.666Z,54.90
2022-11-20T17:33:55.666Z,53.83
2022-11-20T17:36:22.913Z,51.15
2022-11-20T17:38:49.876Z,45.85
2022-11-20T17:41:18.829Z,46.05
2022-11-20T17:43:46.027Z,50.03
2022-11-20T17:46:17.576Z,47.97
2022-11-20T17:48:44.865Z,47.92
2022-11-20T17:51:14.018Z,51.40
2022-11-20T17:53:42.428Z,49.30
2022-11-20T17:56:28.209Z,47.42
2022-11-20T17:58:55.287Z,43.13
2022-11-20T18:01:22.486Z,45.35
2022-11-20T18:03:49.745Z,42.05
2022-11-20T18:06:21.217Z,52.92
2022-11-20T18:08:48.441Z,46.15
2022-11-20T18:11:23.378Z,51.33
2022-11-20T18:14:10.324Z,52.22
2022-11-20T18:16:39.175Z,54.13
2022-11-20T18:19:06.087Z,57.75
2022-11-20T18:21:33.749Z,60.55
2022-11-20T18:24:00.722Z,56.22
2022-11-20T18:26:27.714Z,59.28
2022-11-20T18:28:54.804Z,56.30
2022-11-20T18:31:21.825Z,55.55
2022-11-20T18:33:48.870Z,56.42
2022-11-20T18:36:20.261Z,58.40
2022-11-20T18:38:48.594Z,72.05
2022-11-20T18:41:35.818Z,68.90
2022-11-20T18:44:22.571Z,84.00
2022-11-20T18:46:49.655Z,73.03
2022-11-20T18:49:16.622Z,76.82
2022-11-20T18:51:46.584Z,75.25
2022-11-20T18:54:13.806Z,75.38
2022-11-20T18:56:40.940Z,71.72
2022-11-20T18:59:09.119Z,67.82
2022-11-20T19:01:36.442Z,61.13
2022-11-20T19:04:11.639Z,63.22
2022-11-20T19:06:39.030Z,56.78
2022-11-20T19:09:08.871Z,57.92
2022-11-20T19:11:36.378Z,59.40
2022-11-20T19:14:04.392Z,61.88
2022-11-20T19:16:31.650Z,66.10
2022-11-20T19:19:05.516Z,62.65
2022-11-20T19:21:32.954Z,63.50
2022-11-20T19:24:01.723Z,68.20
2022-11-20T19:26:34.916Z,71.18
2022-11-20T19:29:04.390Z,69.63
2022-11-20T19:31:31.387Z,61.72
2022-11-20T19:34:01.588Z,65.40
2022-11-20T19:36:30.549Z,66.82
2022-11-20T19:39:29.182Z,75.55
2022-11-20T19:41:58.544Z,65.78
2022-11-20T19:44:26.525Z,63.83
2022-11-20T19:46:53.829Z,59.10
2022-11-20T19:49:20.990Z,70.22
2022-11-20T19:51:49.427Z,69.20
2022-11-20T19:54:17.002Z,70.03
2022-11-20T19:56:45.556Z,61.70
2022-11-20T19:59:13.087Z,64.57
2022-11-20T20:01:40.265Z,61.60
2022-11-20T20:04:07.477Z,63.70
2022-11-20T20:06:36.470Z,49.78
2022-11-20T20:09:08.245Z,47.92
2022-11-20T20:11:36.694Z,54.38
2022-11-20T20:14:06.281Z,55.83
2022-11-20T20:16:34.361Z,51.78
2022-11-20T20:19:02.432Z,49.53
2022-11-20T20:21:30.672Z,53.85
2022-11-20T20:24:03.289Z,53.40
2022-11-20T20:27:44.298Z,64.10
2022-11-20T20:30:25.235Z,63.50
2022-11-20T20:32:56.311Z,57.53
2022-11-20T20:35:41.463Z,56.65
2022-11-20T20:38:08.581Z,54.50
2022-11-20T20:40:59.578Z,57.03
2022-11-20T20:43:56.271Z,49.53
2022-11-20T20:46:30.092Z,51.05
2022-11-20T20:49:07.878Z,48.03
2022-11-20T20:51:58.511Z,49.30
2022-11-20T20:54:34.601Z,47.55
2022-11-20T21:07:36.241Z,45.80
2022-11-20T21:10:23.984Z,45.28
2022-11-20T21:12:51.261Z,43.92
2022-11-20T21:15:27.402Z,46.05
2022-11-20T21:17:54.583Z,43.00
2022-11-20T21:20:43.190Z,43.05
2022-11-20T21:23:10.531Z,40.90
2022-11-20T21:25:59.651Z,40.90
2022-11-20T21:28:51.382Z,41.50
2022-11-20T21:31:26.543Z,44.70
2022-11-20T21:33:57.821Z,41.20
2022-11-20T21:36:49.399Z,43.50
2022-11-20T21:39:17.155Z,52.00
2022-11-20T21:41:44.181Z,45.53
2022-11-20T21:44:33.364Z,46.33
2022-11-20T21:49:52.218Z,45.70
2022-11-20T21:52:22.386Z,52.50
2022-11-20T21:54:49.557Z,56.28
2022-11-20T21:57:16.571Z,56.38
2022-11-20T21:59:43.541Z,63.63
2022-11-20T22:02:13.177Z,58.80
2022-11-20T22:04:40.352Z,63.45
2022-11-20T22:07:07.401Z,55.67
2022-11-20T22:09:34.546Z,60.78
2022-11-20T22:12:01.473Z,63.95
2022-11-20T22:14:39.684Z,57.88
2022-11-20T22:17:06.892Z,55.65
2022-11-20T22:19:57.785Z,54.20
2022-11-20T22:22:25.315Z,50.17
2022-11-20T22:25:00.961Z,49.92
2022-11-20T22:27:37.850Z,43.08
2022-11-20T22:30:05.631Z,46.42
2022-11-20T22:32:35.945Z,39.03
2022-11-20T22:35:03.154Z,40.75
2022-11-20T22:37:37.024Z,38.83
2022-11-20T22:40:05.422Z,38.13
2022-11-20T22:42:36.857Z,41.50
2022-11-20T22:45:32.483Z,36.88
2022-11-20T22:48:08.321Z,37.17
2022-11-20T22:50:39.407Z,32.47
2022-11-20T22:53:06.386Z,37.03
2022-11-20T22:55:34.153Z,35.92
2022-11-20T22:58:01.186Z,34.28
2022-11-20T23:01:07.879Z,33.67
2022-11-20T23:03:55.611Z,32.25
2022-11-20T23:06:41.300Z,35.83
2022-11-20T23:09:08.876Z,36.25
2022-11-20T23:12:48.324Z,36.95
2022-11-20T23:15:15.417Z,33.55
2022-11-20T23:17:42.759Z,36.67
2022-11-20T23:20:35.409Z,36.53
2022-11-20T23:23:04.014Z,32.08
2022-11-20T23:25:40.472Z,33.75
2022-11-20T23:29:24.584Z,33.50
2022-11-20T23:31:51.616Z,36.45
2022-11-20T23:34:43.670Z,34.05
2022-11-20T23:37:10.674Z,31.42
2022-11-20T23:39:39.870Z,34.83
2022-11-20T23:42:06.848Z,38.53
2022-11-20T23:44:41.171Z,36.95
2022-11-20T23:50:06.123Z,33.78
2022-11-20T23:52:36.922Z,34.63
2022-11-20T23:55:04.197Z,41.75
2022-11-20T23:57:33.873Z,33.33
